createdAt,value
2018-05-07T00:02:18.689Z,19.91
2018-05-07T00:04:46.778Z,19.85
2018-05-07T00:07:15.370Z,19.76
2018-05-07T00:09:43.495Z,19.75
2018-05-07T00:12:11.516Z,19.62
2018-05-07T00:14:39.690Z,19.59
2018-05-07T00:17:07.753Z,19.61
2018-05-07T00:19:35.852Z,19.59
2018-05-07T00:22:03.939Z,19.59
2018-05-07T00:24:32.022Z,19.62
2018-05-07T00:27:00.122Z,19.60
2018-05-07T00:29:33.826Z,19.58
2018-05-07T00:32:01.943Z,19.61
2018-05-07T00:34:30.021Z,19.52
2018-05-07T00:36:58.158Z,19.51
2018-05-07T00:39:26.274Z,19.52
2018-05-07T00:41:59.926Z,19.53
2018-05-07T00:44:28.007Z,19.51
2018-05-07T00:46:56.114Z,19.53
2018-05-07T00:49:24.218Z,19.42
2018-05-07T00:51:52.291Z,19.51
2018-05-07T00:54:20.453Z,19.54
2018-05-07T00:56:48.964Z,19.51
2018-05-07T00:59:17.014Z,19.46
2018-05-07T01:01:45.101Z,19.35
2018-05-07T01:04:13.203Z,19.38
2018-05-07T01:06:41.301Z,19.36
2018-05-07T01:09:09.391Z,19.33
2018-05-07T01:11:37.475Z,19.28
2018-05-07T01:14:05.554Z,19.22
2018-05-07T01:16:33.691Z,19.23
2018-05-07T01:19:01.821Z,19.33
2018-05-07T01:21:29.886Z,19.24
2018-05-07T01:23:58.244Z,19.10
2018-05-07T01:26:27.123Z,19.02
2018-05-07T01:28:56.068Z,19.12
2018-05-07T01:31:24.159Z,19.16
2018-05-07T01:33:53.202Z,19.05
2018-05-07T01:36:21.350Z,18.97
2018-05-07T01:38:49.408Z,19.10
2018-05-07T01:41:17.507Z,19.07
2018-05-07T01:43:51.420Z,19.05
2018-05-07T01:46:19.503Z,18.98
2018-05-07T01:48:47.587Z,19.06
2018-05-07T01:51:15.714Z,19.09
2018-05-07T01:53:43.853Z,19.00
2018-05-07T01:56:11.903Z,18.93
2018-05-07T01:58:40.011Z,18.99
2018-05-07T02:01:08.093Z,19.01
2018-05-07T02:03:37.003Z,19.00
2018-05-07T02:06:05.308Z,18.98
2018-05-07T02:08:33.368Z,18.90
2018-05-07T02:11:01.455Z,18.91
2018-05-07T02:13:29.540Z,18.94
2018-05-07T02:15:57.693Z,18.96
2018-05-07T02:31:25.823Z,18.62
2018-05-07T02:33:54.555Z,18.67
2018-05-07T02:36:22.639Z,18.74
2018-05-07T02:38:50.879Z,18.66
2018-05-07T02:41:18.891Z,18.66
2018-05-07T02:43:46.983Z,18.70
2018-05-07T02:46:15.105Z,18.54
2018-05-07T02:48:43.195Z,18.55
2018-05-07T02:51:11.295Z,18.54
2018-05-07T02:53:39.365Z,18.63
2018-05-07T02:56:07.463Z,18.64
2018-05-07T02:58:35.567Z,18.54
2018-05-07T03:01:03.651Z,18.50
2018-05-07T03:03:32.467Z,18.49
2018-05-07T03:06:00.551Z,18.55
2018-05-07T03:08:28.634Z,18.57
2018-05-07T03:10:56.755Z,18.51
2018-05-07T03:13:25.015Z,18.48
2018-05-07T03:15:53.124Z,18.47
2018-05-07T03:18:21.219Z,18.42
2018-05-07T03:20:49.291Z,18.32
2018-05-07T03:23:17.379Z,18.39
2018-05-07T03:25:45.464Z,18.32
2018-05-07T03:28:13.559Z,18.26
2018-05-07T03:30:41.679Z,18.21
2018-05-07T03:33:10.662Z,18.08
2018-05-07T03:35:38.751Z,18.22
2018-05-07T03:38:07.588Z,18.10
2018-05-07T03:40:36.519Z,17.99
2018-05-07T03:43:04.557Z,18.02
2018-05-07T03:45:32.638Z,17.91
2018-05-07T03:48:01.359Z,18.06
2018-05-07T03:50:29.439Z,18.15
2018-05-07T03:52:57.531Z,18.14
2018-05-07T03:55:25.629Z,18.08
2018-05-07T03:57:53.751Z,18.09
2018-05-07T04:00:22.729Z,18.01
2018-05-07T04:02:50.827Z,17.91
2018-05-07T04:05:18.939Z,17.89
2018-05-07T04:07:52.725Z,17.87
2018-05-07T04:10:26.707Z,17.77
2018-05-07T04:12:54.793Z,17.78
2018-05-07T04:15:22.947Z,17.80
2018-05-07T04:18:03.787Z,17.85
2018-05-07T04:23:47.537Z,17.73
2018-05-07T04:26:15.641Z,17.83
2018-05-07T04:28:43.935Z,17.85
2018-05-07T04:31:12.063Z,17.88
2018-05-07T04:33:40.147Z,17.86
2018-05-07T04:36:09.174Z,17.82
2018-05-07T04:38:37.328Z,17.76
2018-05-07T04:41:05.331Z,17.87
2018-05-07T04:43:33.830Z,17.79
2018-05-07T04:46:01.891Z,17.77
2018-05-07T04:48:30.751Z,17.80
2018-05-07T04:50:59.140Z,17.78
2018-05-07T04:53:27.225Z,17.72
2018-05-07T04:55:55.310Z,17.85
2018-05-07T04:58:23.392Z,18.02
2018-05-07T05:00:51.484Z,17.99
2018-05-07T05:03:19.901Z,17.98
2018-05-07T05:05:48.945Z,17.99
2018-05-07T05:08:17.041Z,18.00
2018-05-07T05:10:45.147Z,17.85
2018-05-07T05:13:13.344Z,17.95
2018-05-07T05:15:41.422Z,17.97
2018-05-07T05:18:09.519Z,17.93
2018-05-07T05:20:37.611Z,18.02
2018-05-07T05:23:05.700Z,18.01
2018-05-07T05:25:34.067Z,17.94
2018-05-07T05:28:08.620Z,17.81
2018-05-07T05:30:36.840Z,17.95
2018-05-07T05:33:04.990Z,18.00
2018-05-07T05:35:33.104Z,18.02
2018-05-07T05:38:01.235Z,18.05
2018-05-07T05:40:29.297Z,18.06
2018-05-07T05:42:57.395Z,18.08
2018-05-07T05:45:25.476Z,18.07
2018-05-07T05:47:53.567Z,18.08
2018-05-07T05:50:21.671Z,17.95
2018-05-07T05:52:49.769Z,17.99
2018-05-07T05:55:17.872Z,18.15
2018-05-07T05:57:45.952Z,18.20
2018-05-07T06:00:14.074Z,18.16
2018-05-07T06:02:42.168Z,18.15
2018-05-07T06:05:11.050Z,18.20
2018-05-07T06:07:39.859Z,18.22
2018-05-07T06:10:08.233Z,18.24
2018-05-07T06:12:36.630Z,18.17
2018-05-07T06:15:04.738Z,18.22
2018-05-07T06:17:32.842Z,18.16
2018-05-07T06:20:00.937Z,18.11
2018-05-07T06:22:29.017Z,18.29
2018-05-07T06:24:57.129Z,18.32
2018-05-07T06:27:25.315Z,18.41
2018-05-07T06:29:53.328Z,18.43
2018-05-07T06:32:21.449Z,18.46
2018-05-07T06:34:49.523Z,18.44
2018-05-07T06:37:17.609Z,18.45
2018-05-07T06:39:45.753Z,18.47
2018-05-07T06:42:13.840Z,18.45
2018-05-07T06:44:42.795Z,18.49
2018-05-07T06:47:10.891Z,18.54
2018-05-07T06:49:39.757Z,18.60
2018-05-07T06:52:08.704Z,18.87
2018-05-07T06:54:36.782Z,19.15
2018-05-07T06:57:04.874Z,19.60
2018-05-07T06:59:33.853Z,20.04
2018-05-07T07:02:01.961Z,20.48
2018-05-07T07:04:30.384Z,20.83
2018-05-07T07:06:58.488Z,21.36
2018-05-07T07:09:26.577Z,21.94
2018-05-07T07:11:54.754Z,22.59
2018-05-07T07:14:22.832Z,23.13
2018-05-07T07:16:50.932Z,23.36
2018-05-07T07:19:19.019Z,23.08
2018-05-07T07:21:52.658Z,23.23
2018-05-07T07:24:20.695Z,23.75
2018-05-07T07:26:48.780Z,24.46
2018-05-07T07:29:17.856Z,25.02
2018-05-07T07:31:45.964Z,25.06
2018-05-07T07:34:16.055Z,24.83
2018-05-07T07:36:44.135Z,24.72
2018-05-07T07:39:12.233Z,24.46
2018-05-07T07:41:40.570Z,23.98
2018-05-07T07:44:08.740Z,23.52
2018-05-07T07:46:37.123Z,22.94
2018-05-07T07:49:05.280Z,22.96
2018-05-07T07:51:34.231Z,22.80
2018-05-07T07:54:06.345Z,22.58
2018-05-07T07:56:34.477Z,22.50
2018-05-07T07:59:02.542Z,22.34
2018-05-07T08:14:30.643Z,22.52
2018-05-07T08:16:58.735Z,22.40
2018-05-07T08:19:26.816Z,22.32
2018-05-07T08:21:55.332Z,22.29
2018-05-07T08:24:23.430Z,22.45
2018-05-07T08:26:51.517Z,22.51
2018-05-07T08:29:19.702Z,22.37
2018-05-07T08:31:47.777Z,22.51
2018-05-07T08:34:16.710Z,22.57
2018-05-07T08:36:44.946Z,22.68
2018-05-07T08:39:13.043Z,22.49
2018-05-07T08:41:41.116Z,22.51
2018-05-07T08:44:09.227Z,22.41
2018-05-07T08:46:37.314Z,22.44
2018-05-07T08:49:05.407Z,22.45
2018-05-07T08:51:33.697Z,22.39
2018-05-07T08:54:01.795Z,22.52
2018-05-07T08:56:29.858Z,22.44
2018-05-07T08:58:58.162Z,22.43
2018-05-07T09:01:26.291Z,22.39
2018-05-07T09:03:54.359Z,22.41
2018-05-07T09:06:22.465Z,22.30
2018-05-07T09:08:50.575Z,22.34
2018-05-07T09:11:18.664Z,22.31
2018-05-07T09:13:46.752Z,22.32
2018-05-07T09:16:14.859Z,22.28
2018-05-07T09:18:42.935Z,22.36
2018-05-07T09:21:11.044Z,22.30
2018-05-07T09:23:39.192Z,22.28
2018-05-07T09:26:07.267Z,22.23
2018-05-07T09:28:35.356Z,22.27
2018-05-07T09:31:03.467Z,22.30
2018-05-07T09:33:31.599Z,22.37
2018-05-07T09:36:00.630Z,22.45
2018-05-07T09:38:28.775Z,22.39
2018-05-07T09:40:56.872Z,22.23
2018-05-07T09:43:24.963Z,22.18
2018-05-07T09:45:53.076Z,22.36
2018-05-07T09:48:21.204Z,22.44
2018-05-07T09:50:49.313Z,22.39
2018-05-07T09:53:17.667Z,22.47
2018-05-07T09:55:45.837Z,22.44
2018-05-07T09:58:13.851Z,22.36
2018-05-07T10:00:41.990Z,22.33
2018-05-07T10:03:10.089Z,22.35
2018-05-07T10:05:38.183Z,22.40
2018-05-07T10:08:06.287Z,22.44
2018-05-07T10:10:34.378Z,22.46
2018-05-07T10:13:02.486Z,22.49
2018-05-07T10:15:30.587Z,22.50
2018-05-07T10:17:58.706Z,22.35
2018-05-07T10:20:26.816Z,22.33
2018-05-07T10:22:54.902Z,22.43
2018-05-07T10:25:22.991Z,22.47
2018-05-07T10:40:51.182Z,22.54
2018-05-07T10:43:19.248Z,22.63
2018-05-07T10:45:47.369Z,22.61
2018-05-07T10:48:15.454Z,22.68
2018-05-07T10:50:43.542Z,22.69
2018-05-07T10:53:11.663Z,22.68
2018-05-07T10:55:40.074Z,22.61
2018-05-07T10:58:08.160Z,22.67
2018-05-07T11:00:36.256Z,22.68
2018-05-07T11:03:04.354Z,22.74
2018-05-07T11:05:33.454Z,22.77
2018-05-07T11:08:01.542Z,22.83
2018-05-07T11:10:29.640Z,22.91
2018-05-07T11:12:57.734Z,22.93
2018-05-07T11:15:25.854Z,22.92
2018-05-07T11:17:54.178Z,22.97
2018-05-07T11:20:27.853Z,23.03
2018-05-07T11:22:55.982Z,23.02
2018-05-07T11:25:24.058Z,23.07
2018-05-07T11:27:52.170Z,23.13
2018-05-07T11:30:20.263Z,23.09
2018-05-07T11:32:48.338Z,23.00
2018-05-07T11:35:16.423Z,23.02
2018-05-07T11:37:44.538Z,23.14
2018-05-07T11:40:12.676Z,23.27
2018-05-07T11:42:40.758Z,23.34
2018-05-07T11:45:08.869Z,23.34
2018-05-07T11:47:36.999Z,23.41
2018-05-07T11:50:05.038Z,23.41
2018-05-07T11:52:33.156Z,23.41
2018-05-07T11:55:01.269Z,23.33
2018-05-07T11:57:29.378Z,23.31
2018-05-07T11:59:57.518Z,23.34
2018-05-07T12:02:25.610Z,23.39
2018-05-07T12:04:53.690Z,23.48
2018-05-07T12:07:21.812Z,23.60
2018-05-07T12:09:49.906Z,23.53
2018-05-07T12:12:17.987Z,23.48
2018-05-07T12:14:46.455Z,23.48
2018-05-07T12:17:15.560Z,23.48
2018-05-07T12:19:43.623Z,23.50
2018-05-07T12:22:11.764Z,23.66
2018-05-07T12:24:39.882Z,23.66
2018-05-07T12:27:07.979Z,23.70
2018-05-07T12:29:36.188Z,23.68
2018-05-07T12:32:04.290Z,23.74
2018-05-07T12:34:32.708Z,23.77
2018-05-07T12:37:00.803Z,23.68
2018-05-07T12:39:29.077Z,23.58
2018-05-07T12:41:57.153Z,23.61
2018-05-07T12:44:25.602Z,23.70
2018-05-07T12:46:53.710Z,23.83
2018-05-07T12:49:21.870Z,23.79
2018-05-07T12:51:49.951Z,23.67
2018-05-07T12:54:18.051Z,23.68
2018-05-07T12:56:51.131Z,23.83
2018-05-07T12:59:19.221Z,23.93
2018-05-07T13:01:47.695Z,24.03
2018-05-07T13:04:16.484Z,23.92
2018-05-07T13:06:46.411Z,23.86
2018-05-07T13:09:14.467Z,23.83
2018-05-07T13:11:42.674Z,23.90
2018-05-07T13:14:11.059Z,23.99
2018-05-07T13:16:39.145Z,24.03
2018-05-07T13:19:07.265Z,24.05
2018-05-07T13:21:35.359Z,24.03
2018-05-07T13:24:03.441Z,23.95
2018-05-07T13:26:31.535Z,23.96
2018-05-07T13:28:59.627Z,23.95
2018-05-07T13:31:27.727Z,24.05
2018-05-07T13:34:01.295Z,24.05
2018-05-07T13:36:29.406Z,24.01
2018-05-07T13:38:57.490Z,24.06
2018-05-07T13:41:25.603Z,24.10
2018-05-07T13:43:53.704Z,24.13
2018-05-07T13:46:21.781Z,24.08
2018-05-07T13:48:49.859Z,24.14
2018-05-07T13:51:17.993Z,24.21
2018-05-07T13:53:46.065Z,24.24
2018-05-07T13:56:14.141Z,24.31
2018-05-07T13:58:42.252Z,24.31
2018-05-07T14:01:10.660Z,24.46
2018-05-07T14:03:38.789Z,24.45
2018-05-07T14:06:06.959Z,24.45
2018-05-07T14:08:35.167Z,24.50
2018-05-07T14:11:03.163Z,24.47
2018-05-07T14:13:31.359Z,24.56
2018-05-07T14:15:59.432Z,24.55
2018-05-07T14:18:27.520Z,24.45
2018-05-07T14:20:55.668Z,24.44
2018-05-07T14:23:23.786Z,24.47
2018-05-07T14:25:51.848Z,24.48
2018-05-07T14:28:19.963Z,24.60
2018-05-07T14:30:48.145Z,24.65
2018-05-07T14:33:16.215Z,24.68
2018-05-07T14:35:44.315Z,24.68
2018-05-07T14:38:17.870Z,24.63
2018-05-07T14:40:46.016Z,24.69
2018-05-07T14:43:14.112Z,24.62
2018-05-07T14:45:42.203Z,24.60
2018-05-07T14:48:10.336Z,24.58
2018-05-07T14:50:38.436Z,24.57
2018-05-07T15:06:06.598Z,24.59
2018-05-07T15:08:34.672Z,24.63
2018-05-07T15:11:02.791Z,24.60
2018-05-07T15:13:31.616Z,24.66
2018-05-07T15:15:59.776Z,24.72
2018-05-07T15:18:27.863Z,24.69
2018-05-07T15:20:56.015Z,24.68
2018-05-07T15:23:24.238Z,24.68
2018-05-07T15:25:52.284Z,24.71
2018-05-07T15:28:20.405Z,24.72
2018-05-07T15:30:48.593Z,24.85
2018-05-07T15:33:16.764Z,24.76
2018-05-07T15:35:44.863Z,24.79
2018-05-07T15:38:12.964Z,24.75
2018-05-07T15:40:41.075Z,24.72
2018-05-07T15:43:09.179Z,24.70
2018-05-07T15:45:37.283Z,24.72
2018-05-07T15:48:05.412Z,24.72
2018-05-07T15:50:34.274Z,24.76
2018-05-07T15:53:02.735Z,24.67
2018-05-07T15:55:30.845Z,24.63
2018-05-07T15:57:59.749Z,24.78
2018-05-07T16:00:27.883Z,24.89
2018-05-07T16:15:56.040Z,24.84
2018-05-07T16:18:24.795Z,24.84
2018-05-07T16:20:53.722Z,24.80
2018-05-07T16:23:22.088Z,24.85
2018-05-07T16:25:49.990Z,24.76
2018-05-07T16:28:23.658Z,24.74
2018-05-07T16:30:57.351Z,24.80
2018-05-07T16:33:25.407Z,24.81
2018-05-07T16:35:53.557Z,24.87
2018-05-07T16:38:21.651Z,24.84
2018-05-07T16:40:49.779Z,24.83
2018-05-07T16:43:17.912Z,24.87
2018-05-07T16:45:46.004Z,24.92
2018-05-07T16:48:14.122Z,24.91
2018-05-07T16:50:42.284Z,24.88
2018-05-07T16:53:10.383Z,24.84
2018-05-07T16:55:38.481Z,24.88
2018-05-07T16:58:06.596Z,24.88
2018-05-07T17:00:35.327Z,24.97
2018-05-07T17:03:03.425Z,24.90
2018-05-07T17:05:31.544Z,24.87
2018-05-07T17:07:59.632Z,24.86
2018-05-07T17:10:27.911Z,24.86
2018-05-07T17:12:56.791Z,24.87
2018-05-07T17:15:30.536Z,24.87
2018-05-07T17:18:04.131Z,24.87
2018-05-07T17:20:32.239Z,24.88
2018-05-07T17:23:00.327Z,24.85
2018-05-07T17:25:28.416Z,24.85
2018-05-07T17:27:56.708Z,24.83
2018-05-07T17:30:24.800Z,24.85
2018-05-07T17:32:52.999Z,24.90
2018-05-07T17:35:21.103Z,24.94
2018-05-07T17:37:49.252Z,24.91
2018-05-07T17:40:17.738Z,24.90
2018-05-07T17:42:45.919Z,24.85
2018-05-07T17:45:25.759Z,24.86
2018-05-07T17:48:05.918Z,24.79
2018-05-07T17:50:33.961Z,24.76
2018-05-07T17:53:02.077Z,24.73
2018-05-07T17:55:30.276Z,24.75
2018-05-07T17:57:58.356Z,24.74
2018-05-07T18:00:26.478Z,24.70
2018-05-07T18:02:54.575Z,24.67
2018-05-07T18:05:28.138Z,24.62
2018-05-07T18:07:56.249Z,24.62
2018-05-07T18:10:25.449Z,24.60
2018-05-07T18:12:54.008Z,24.58
2018-05-07T18:15:22.182Z,24.55
2018-05-07T18:17:51.193Z,24.55
2018-05-07T18:20:19.258Z,24.55
2018-05-07T18:22:47.655Z,24.52
2018-05-07T18:25:15.803Z,24.51
2018-05-07T18:27:49.330Z,24.49
2018-05-07T18:30:17.440Z,24.46
2018-05-07T18:32:45.541Z,24.43
2018-05-07T18:35:13.656Z,24.41
2018-05-07T18:37:41.785Z,24.39
2018-05-07T18:40:09.884Z,24.36
2018-05-07T18:42:37.985Z,24.35
2018-05-07T18:45:06.114Z,24.32
2018-05-07T18:47:35.046Z,24.30
2018-05-07T18:50:03.160Z,24.27
2018-05-07T18:52:31.294Z,24.25
2018-05-07T18:54:59.395Z,24.21
2018-05-07T18:57:32.966Z,24.17
2018-05-07T19:00:06.517Z,24.15
2018-05-07T19:02:34.618Z,24.11
2018-05-07T19:05:02.717Z,24.08
2018-05-07T19:07:30.823Z,24.07
2018-05-07T19:09:58.925Z,24.05
2018-05-07T19:12:27.047Z,24.02
2018-05-07T19:14:55.158Z,23.99
2018-05-07T19:17:23.251Z,23.97
2018-05-07T19:19:51.383Z,23.93
2018-05-07T19:22:19.451Z,23.89
2018-05-07T19:24:47.551Z,23.88
2018-05-07T19:27:15.676Z,23.86
2018-05-07T19:29:44.060Z,23.85
2018-05-07T19:32:12.154Z,23.81
2018-05-07T19:34:40.276Z,23.77
2018-05-07T19:37:08.372Z,23.76
2018-05-07T19:39:36.463Z,23.72
2018-05-07T19:42:04.569Z,23.70
2018-05-07T19:44:32.673Z,23.70
2018-05-07T19:47:00.763Z,23.68
2018-05-07T19:49:28.863Z,23.64
2018-05-07T19:51:56.963Z,23.61
2018-05-07T19:54:25.056Z,23.54
2018-05-07T19:56:53.892Z,23.56
2018-05-07T19:59:21.998Z,23.56
2018-05-07T20:01:50.088Z,23.53
2018-05-07T20:04:18.208Z,23.52
2018-05-07T20:06:46.308Z,23.49
2018-05-07T20:09:14.451Z,23.47
2018-05-07T20:11:42.511Z,23.46
2018-05-07T20:14:11.322Z,23.44
2018-05-07T20:16:39.415Z,23.44
2018-05-07T20:19:07.516Z,23.40
2018-05-07T20:21:36.540Z,23.38
2018-05-07T20:24:04.620Z,23.39
2018-05-07T20:26:38.376Z,23.35
2018-05-07T20:29:06.522Z,23.33
2018-05-07T20:31:34.616Z,23.31
2018-05-07T20:34:02.753Z,23.28
2018-05-07T20:36:31.665Z,23.31
2018-05-07T20:38:59.788Z,23.29
2018-05-07T20:41:27.911Z,23.27
2018-05-07T20:43:56.042Z,23.25
2018-05-07T20:46:24.128Z,23.20
2018-05-07T20:48:57.752Z,23.20
2018-05-07T20:51:26.172Z,23.16
2018-05-07T20:53:54.274Z,23.17
2018-05-07T20:56:22.462Z,23.13
2018-05-07T20:58:50.553Z,23.13
2018-05-07T21:01:18.791Z,23.10
2018-05-07T21:03:46.789Z,23.07
2018-05-07T21:06:15.199Z,23.03
2018-05-07T21:08:43.286Z,22.97
2018-05-07T21:11:11.406Z,22.98
2018-05-07T21:13:39.516Z,22.96
2018-05-07T21:16:07.627Z,22.91
2018-05-07T21:18:35.732Z,22.91
2018-05-07T21:21:03.822Z,22.88
2018-05-07T21:23:32.796Z,22.81
2018-05-07T21:26:00.888Z,22.68
2018-05-07T21:28:29.180Z,22.73
2018-05-07T21:30:57.313Z,22.71
2018-05-07T21:33:25.419Z,22.73
2018-05-07T21:35:53.523Z,22.66
2018-05-07T21:38:21.671Z,22.57
2018-05-07T21:40:49.796Z,22.53
2018-05-07T21:43:17.910Z,22.54
2018-05-07T21:45:46.026Z,22.49
2018-05-07T21:48:19.631Z,22.43
2018-05-07T21:50:53.356Z,22.51
2018-05-07T21:53:21.460Z,22.45
2018-05-07T21:55:49.563Z,22.40
2018-05-07T21:58:17.678Z,22.29
2018-05-07T22:00:45.844Z,22.33
2018-05-07T22:03:13.996Z,22.19
2018-05-07T22:05:42.085Z,22.21
2018-05-07T22:08:10.199Z,22.18
2018-05-07T22:10:38.296Z,22.09
2018-05-07T22:13:06.396Z,22.21
2018-05-07T22:15:34.581Z,22.15
2018-05-07T22:18:02.659Z,22.06
2018-05-07T22:20:30.752Z,22.07
2018-05-07T22:22:58.867Z,21.97
2018-05-07T22:25:26.969Z,22.07
2018-05-07T22:27:55.070Z,21.98
2018-05-07T22:30:23.168Z,22.07
2018-05-07T22:32:51.270Z,21.96
2018-05-07T22:35:19.992Z,21.92
2018-05-07T22:37:48.108Z,22.02
2018-05-07T22:40:16.235Z,21.94
2018-05-07T22:42:44.538Z,21.91
2018-05-07T22:45:12.690Z,21.90
2018-05-07T22:47:40.801Z,21.91
2018-05-07T22:50:08.892Z,21.89
2018-05-07T22:52:37.050Z,21.89
2018-05-07T22:55:08.142Z,21.79
2018-05-07T22:57:36.239Z,21.74
2018-05-07T23:00:05.246Z,21.75
2018-05-07T23:02:33.345Z,21.70
2018-05-07T23:05:01.530Z,21.68
2018-05-07T23:07:29.559Z,21.65
2018-05-07T23:09:57.651Z,21.63
2018-05-07T23:12:25.783Z,21.61
2018-05-07T23:14:59.337Z,21.42
2018-05-07T23:17:27.433Z,21.56
2018-05-07T23:19:55.550Z,21.49
2018-05-07T23:22:23.690Z,21.56
2018-05-07T23:24:51.811Z,21.54
2018-05-07T23:27:19.904Z,21.49
2018-05-07T23:29:48.003Z,21.52
2018-05-07T23:32:16.140Z,21.42
2018-05-07T23:34:44.230Z,21.48
2018-05-07T23:37:12.322Z,21.56
2018-05-07T23:39:40.430Z,21.43
2018-05-07T23:42:08.536Z,21.49
2018-05-07T23:44:36.635Z,21.57
2018-05-07T23:47:04.751Z,21.53
2018-05-07T23:49:32.831Z,21.56
2018-05-07T23:52:00.923Z,21.50
2018-05-07T23:54:29.025Z,21.45
2018-05-07T23:56:57.147Z,21.42
2018-05-07T23:59:25.273Z,21.38
